Time;durP1;ratioP1;P1;durP2;ratioP2;P2;SDS_P1;SDS_P2;PMS_P1;PMS_P2;Temp;Humidity;BMP_temperature;BMP_pressure;BME280_temperature;BME280_humidity;BME280_pressure;Samples;Min_cycle;Max_cycle;Signal;HPM_P1;HPM_P2
2022/12/22 03:27:12;;;;;;;;;;;;;;;8.27;100.00;100024.25;5285233;28;20270;-66
2022/12/22 03:29:43;;;;;;;;;;;;;;;8.25;100.00;100022.56;5285236;28;19916;-66
2022/12/22 03:32:14;;;;;;;;;;;;;;;8.25;100.00;100025.22;5287016;28;19920;-67
2022/12/22 03:34:46;;;;;;;;;;;;;;;8.24;100.00;100017.34;5285601;28;20370;-66
2022/12/22 03:37:17;;;;;;;;;;;;;;;8.26;100.00;100012.75;5288811;28;20006;-66
2022/12/22 03:39:48;;;;;;;;;;;;;;;8.25;100.00;100016.41;5287635;28;20876;-67
2022/12/22 03:47:59;;;;;;;;;;;;;;;8.24;100.00;100007.56;5288989;28;19998;-67
2022/12/22 03:50:31;;;;;;;;;;;;;;;8.23;100.00;100005.06;5283048;28;19920;-66
2022/12/22 03:53:02;;;;;;;;;;;;;;;8.21;100.00;100007.00;5286086;28;20400;-67
2022/12/22 03:55:33;;;;;;;;;;;;;;;8.20;100.00;100005.28;5281137;28;19927;-66
2022/12/22 03:58:05;;;;;;;;;;;;;;;8.18;100.00;100008.06;5286095;28;20447;-66
2022/12/22 04:00:36;;;;;;;;;;;;;;;8.16;100.00;100002.03;5284805;28;19927;-66
2022/12/22 04:03:07;;;;;;;;;;;;;;;8.17;100.00;99992.22;5283699;28;19931;-67
2022/12/22 04:05:38;;;;;;;;;;;;;;;8.14;100.00;99990.69;5287706;28;20405;-66
2022/12/22 04:08:10;;;;;;;;;;;;;;;8.14;100.00;99995.16;5284709;28;19917;-66
2022/12/22 04:13:31;;;;;;;;;;;;;;;8.09;100.00;99990.19;5276673;28;19920;-66
2022/12/22 04:16:02;;;;;;;;;;;;;;;8.07;100.00;99988.63;5282239;28;19920;-66
2022/12/22 04:18:33;;;;;;;;;;;;;;;8.05;100.00;100000.25;5288308;28;19971;-66
2022/12/22 04:21:04;;;;;;;;;;;;;;;8.04;100.00;99990.56;5286011;28;19920;-66
2022/12/22 04:23:36;;;;;;;;;;;;;;;8.03;100.00;99988.03;5284970;28;19920;-66
2022/12/22 04:26:07;;;;;;;;;;;;;;;8.03;100.00;99988.91;5282459;28;20361;-66
2022/12/22 04:28:38;;;;;;;;;;;;;;;8.05;100.00;99986.09;5285865;28;19927;-66
2022/12/22 04:31:09;;;;;;;;;;;;;;;8.07;100.00;100001.91;5284985;28;19920;-66
2022/12/22 04:33:40;;;;;;;;;;;;;;;8.04;100.00;100001.19;5286497;28;21611;-66
2022/12/22 04:36:15;;;;;;;;;;;;;;;8.03;100.00;100001.31;5283640;28;19926;-66
2022/12/22 04:38:46;;;;;;;;;;;;;;;8.05;100.00;99999.38;5288258;28;20317;-66
2022/12/22 04:41:17;;;;;;;;;;;;;;;8.07;100.00;99999.25;5280717;28;19920;-66
2022/12/22 04:43:48;;;;;;;;;;;;;;;8.07;100.00;100009.88;5290772;28;20381;-67
2022/12/22 04:46:20;;;;;;;;;;;;;;;8.04;100.00;100006.50;5282319;28;19967;-66
2022/12/22 04:48:51;;;;;;;;;;;;;;;8.02;100.00;100008.44;5291285;28;20126;-66
2022/12/22 04:51:22;;;;;;;;;;;;;;;8.01;100.00;100009.41;5284362;28;20038;-67
2022/12/22 04:53:53;;;;;;;;;;;;;;;8.02;100.00;100005.78;5283681;28;20053;-66
2022/12/22 04:56:24;;;;;;;;;;;;;;;8.03;100.00;100012.81;5282988;28;20367;-66
2022/12/22 04:58:56;;;;;;;;;;;;;;;8.04;100.00;100003.00;5287065;28;20536;-66
2022/12/22 05:01:27;;;;;;;;;;;;;;;8.07;100.00;100007.22;5279606;28;19924;-66
2022/12/22 05:03:58;;;;;;;;;;;;;;;8.05;100.00;99997.59;5283745;28;20043;-66
2022/12/22 05:06:29;;;;;;;;;;;;;;;8.07;100.00;99994.78;5284992;28;19924;-67
2022/12/22 05:09:00;;;;;;;;;;;;;;;8.07;100.00;99994.78;5286948;28;20402;-66
2022/12/22 05:11:32;;;;;;;;;;;;;;;8.07;100.00;99989.47;5284559;28;19920;-66
2022/12/22 05:14:03;;;;;;;;;;;;;;;8.04;100.00;99997.69;5288586;28;21363;-66
2022/12/22 05:16:34;;;;;;;;;;;;;;;8.05;100.00;100002.03;5282293;28;19992;-66
2022/12/22 05:19:05;;;;;;;;;;;;;;;8.04;100.00;100009.16;5286931;28;19931;-67
2022/12/22 05:21:37;;;;;;;;;;;;;;;8.01;100.00;100001.44;5290737;28;19972;-66
2022/12/22 05:24:08;;;;;;;;;;;;;;;7.96;100.00;100014.25;5288714;28;20126;-66
2022/12/22 05:26:39;;;;;;;;;;;;;;;7.90;100.00;100016.53;5285105;28;20296;-67
2022/12/22 05:29:10;;;;;;;;;;;;;;;7.87;100.00;100011.47;5266601;28;20035;-66
2022/12/22 05:31:41;;;;;;;;;;;;;;;7.85;100.00;100016.91;5301045;28;19927;-66
2022/12/22 05:34:12;;;;;;;;;;;;;;;7.83;100.00;100016.19;5291541;28;20434;-66
2022/12/22 05:36:44;;;;;;;;;;;;;;;7.83;100.00;100024.97;5286039;28;19927;-67
2022/12/22 05:39:15;;;;;;;;;;;;;;;7.82;100.00;100023.31;5290813;28;19931;-66
2022/12/22 05:41:46;;;;;;;;;;;;;;;7.81;100.00;100021.59;5283605;28;19973;-66
2022/12/22 05:44:17;;;;;;;;;;;;;;;7.81;100.00;100028.75;5299313;28;19922;-66
2022/12/22 05:46:50;;;;;;;;;;;;;;;7.80;100.00;100030.53;5279194;28;19920;-66
2022/12/22 05:49:21;;;;;;;;;;;;;;;7.79;100.00;100025.34;5287873;28;19920;-67
2022/12/22 05:51:53;;;;;;;;;;;;;;;7.81;100.00;100032.22;5288915;28;20263;-67
2022/12/22 05:54:24;;;;;;;;;;;;;;;7.83;100.00;100030.28;5289596;28;19963;-66
2022/12/22 05:56:55;;;;;;;;;;;;;;;7.84;100.00;100047.06;5291421;28;19920;-66
2022/12/22 05:59:26;;;;;;;;;;;;;;;7.84;100.00;100053.25;5297906;28;19927;-66
2022/12/22 06:01:57;;;;;;;;;;;;;;;7.82;100.00;100060.50;5288194;28;19953;-66
2022/12/22 06:04:28;;;;;;;;;;;;;;;7.83;100.00;100071.94;5280301;28;20397;-66
2022/12/22 06:07:00;;;;;;;;;;;;;;;7.81;100.00;100074.72;5286232;28;20047;-66
2022/12/22 06:09:31;;;;;;;;;;;;;;;7.82;100.00;100086.19;5284695;28;19942;-66
2022/12/22 06:12:02;;;;;;;;;;;;;;;7.80;100.00;100083.63;5285643;28;20318;-66
2022/12/22 06:14:33;;;;;;;;;;;;;;;7.81;100.00;100084.50;5279990;28;19973;-68
2022/12/22 06:17:04;;;;;;;;;;;;;;;7.82;100.00;100086.19;5279998;28;19923;-66
2022/12/22 06:19:36;;;;;;;;;;;;;;;7.83;100.00;100087.88;5282527;28;19924;-66
2022/12/22 06:22:07;;;;;;;;;;;;;;;7.83;100.00;100093.19;5282110;28;20340;-67
2022/12/22 06:24:38;;;;;;;;;;;;;;;7.82;100.00;100102.97;5278886;28;19951;-67
2022/12/22 06:27:11;;;;;;;;;;;;;;;7.84;100.00;100114.34;5275347;28;20603;-66
2022/12/22 06:29:42;;;;;;;;;;;;;;;7.85;100.00;100112.50;5278744;28;19927;-66
2022/12/22 06:32:13;;;;;;;;;;;;;;;7.88;100.00;100117.59;5282885;28;20594;-66
2022/12/22 06:34:44;;;;;;;;;;;;;;;7.90;100.00;100112.16;5286725;28;19928;-66
2022/12/22 06:37:15;;;;;;;;;;;;;;;7.93;100.00;100117.22;5284410;28;19973;-66
2022/12/22 06:39:47;;;;;;;;;;;;;;;7.94;100.00;100132.19;5283991;28;20305;-66
2022/12/22 06:45:08;;;;;;;;;;;;;;;7.98;100.00;100137.16;5283262;28;19920;-66
2022/12/22 06:47:39;;;;;;;;;;;;;;;7.98;100.00;100138.97;5286655;28;19924;-67
2022/12/22 06:50:10;;;;;;;;;;;;;;;8.00;100.00;100147.69;5279585;28;19924;-66
2022/12/22 06:52:41;;;;;;;;;;;;;;;8.01;100.00;100146.69;5268106;28;19943;-67
2022/12/22 06:55:12;;;;;;;;;;;;;;;8.01;100.00;100150.19;5285578;28;19975;-66
2022/12/22 06:57:44;;;;;;;;;;;;;;;8.02;100.00;100156.38;5288021;28;20433;-66
2022/12/22 07:00:15;;;;;;;;;;;;;;;8.02;100.00;100162.53;5276473;28;19954;-67
2022/12/22 07:02:46;;;;;;;;;;;;;;;8.02;100.00;100172.31;5284022;28;19920;-66
2022/12/22 07:05:17;;;;;;;;;;;;;;;8.03;100.00;100168.69;5282183;28;20441;-67
2022/12/22 07:07:49;;;;;;;;;;;;;;;8.02;100.00;100181.13;5287074;28;19982;-67
2022/12/22 07:10:56;;;;;;;;;;;;;;;8.02;100.00;100188.25;5288672;28;19993;-66
2022/12/22 07:13:20;;;;;;;;;;;;;;;8.01;100.00;100197.16;5284683;28;19973;-66
2022/12/22 07:15:52;;;;;;;;;;;;;;;8.01;100.00;100205.13;5281754;28;19931;-66
2022/12/22 07:18:23;;;;;;;;;;;;;;;7.99;100.00;100210.56;5264495;28;19928;-69
2022/12/22 07:20:54;;;;;;;;;;;;;;;7.98;100.00;100200.09;5278439;28;19924;-68
2022/12/22 07:23:26;;;;;;;;;;;;;;;7.96;100.00;100194.88;5276200;28;19930;-67
2022/12/22 07:25:57;;;;;;;;;;;;;;;7.95;100.00;100200.31;5288485;28;19963;-68
2022/12/22 07:28:31;;;;;;;;;;;;;;;7.92;100.00;100204.03;5285119;28;20298;-66
2022/12/22 07:31:02;;;;;;;;;;;;;;;7.91;100.00;100198.84;5280276;28;19965;-66
2022/12/22 07:33:33;;;;;;;;;;;;;;;7.86;100.00;100204.50;5280760;28;19921;-67
2022/12/22 07:36:07;;;;;;;;;;;;;;;7.82;100.00;100200.38;5281489;28;19931;-65
2022/12/22 07:38:40;;;;;;;;;;;;;;;7.81;100.00;100206.66;5284131;28;20050;-66
2022/12/22 07:44:02;;;;;;;;;;;;;;;7.74;100.00;100213.38;5288018;28;19916;-66
2022/12/22 07:46:35;;;;;;;;;;;;;;;7.73;100.00;100225.81;5284899;28;19920;-66
2022/12/22 07:51:57;;;;;;;;;;;;;;;7.69;100.00;100239.44;5291708;28;19924;-66
2022/12/22 07:54:28;;;;;;;;;;;;;;;7.69;100.00;100240.31;5292402;28;19924;-66
2022/12/22 07:56:59;;;;;;;;;;;;;;;7.68;100.00;100246.56;5284106;28;20020;-66
2022/12/22 07:59:31;;;;;;;;;;;;;;;7.68;100.00;100259.84;5289817;28;20033;-66
2022/12/22 08:02:02;;;;;;;;;;;;;;;7.68;100.00;100280.22;5287975;28;20312;-66
2022/12/22 08:04:33;;;;;;;;;;;;;;;7.67;100.00;100284.69;5286839;28;19916;-66
2022/12/22 08:07:04;;;;;;;;;;;;;;;7.65;100.00;100281.28;5292550;28;20015;-65
2022/12/22 08:09:35;;;;;;;;;;;;;;;7.63;100.00;100297.34;5292672;28;19928;-66
2022/12/22 08:12:06;;;;;;;;;;;;;;;7.63;100.00;100304.44;5289650;28;20297;-66
2022/12/22 08:14:38;;;;;;;;;;;;;;;7.61;100.00;100309.03;5289311;28;19948;-66
2022/12/22 08:17:09;;;;;;;;;;;;;;;7.60;100.00;100310.84;5289787;28;19931;-65
2022/12/22 08:19:40;;;;;;;;;;;;;;;7.59;100.00;100311.81;5270033;28;20665;-66
2022/12/22 08:22:11;;;;;;;;;;;;;;;7.58;100.00;100310.09;5290224;28;19943;-66
2022/12/22 08:24:42;;;;;;;;;;;;;;;7.57;100.00;100310.22;5290904;28;20385;-66
2022/12/22 08:27:15;;;;;;;;;;;;;;;7.57;100.00;100324.31;5287826;28;20519;-66
2022/12/22 08:29:48;;;;;;;;;;;;;;;7.55;100.00;100317.44;5295944;28;19931;-68
2022/12/22 08:32:20;;;;;;;;;;;;;;;7.53;100.00;100316.72;5293712;28;19950;-68
2022/12/22 08:34:52;;;;;;;;;;;;;;;7.50;100.00;100323.09;5295769;28;20491;-66
2022/12/22 08:37:26;;;;;;;;;;;;;;;7.48;100.00;100330.31;5285829;28;19924;-67
2022/12/22 08:40:00;;;;;;;;;;;;;;;7.46;100.00;100348.16;5291461;28;19925;-67
2022/12/22 08:42:32;;;;;;;;;;;;;;;7.44;100.00;100364.19;5292677;28;19924;-67
2022/12/22 08:45:04;;;;;;;;;;;;;;;7.42;100.00;100376.72;5293227;28;19930;-67
2022/12/22 08:47:35;;;;;;;;;;;;;;;7.40;100.00;100388.38;5286558;28;20011;-68
2022/12/22 08:50:06;;;;;;;;;;;;;;;7.38;100.00;100392.97;5291470;28;19932;-67
2022/12/22 08:52:38;;;;;;;;;;;;;;;7.36;100.00;100402.84;5286131;28;19924;-67
2022/12/22 08:55:09;;;;;;;;;;;;;;;7.35;100.00;100401.16;5288036;28;19932;-66
2022/12/22 08:57:40;;;;;;;;;;;;;;;7.37;100.00;100409.84;5295667;28;19968;-67
2022/12/22 09:00:12;;;;;;;;;;;;;;;7.35;100.00;100395.84;5287957;28;19979;-67
2022/12/22 09:02:43;;;;;;;;;;;;;;;7.34;100.00;100399.44;5280426;28;20545;-66
2022/12/22 09:05:18;;;;;;;;;;;;;;;7.34;100.00;100418.03;5289453;28;20651;-67
2022/12/22 09:07:49;;;;;;;;;;;;;;;7.33;100.00;100424.31;5268560;28;19916;-67
2022/12/22 09:10:20;;;;;;;;;;;;;;;7.31;100.00;100415.59;5285609;28;19927;-67
2022/12/22 09:12:51;;;;;;;;;;;;;;;7.29;100.00;100410.41;5286436;28;20381;-67
2022/12/22 09:15:23;;;;;;;;;;;;;;;7.23;100.00;100406.38;5285083;28;19934;-67
2022/12/22 09:17:54;;;;;;;;;;;;;;;7.20;100.00;100413.69;5284141;28;19928;-67
2022/12/22 09:20:25;;;;;;;;;;;;;;;7.16;100.00;100421.00;5283251;28;19936;-67
2022/12/22 09:22:58;;;;;;;;;;;;;;;7.10;100.00;100417.94;5281821;28;19920;-67
2022/12/22 09:25:29;;;;;;;;;;;;;;;7.06;100.00;100425.25;5288211;28;20341;-67
2022/12/22 09:28:00;;;;;;;;;;;;;;;7.04;100.00;100420.03;5286028;28;19974;-68
2022/12/22 09:30:31;;;;;;;;;;;;;;;7.07;100.00;100433.09;5282576;28;19955;-67
2022/12/22 09:33:02;;;;;;;;;;;;;;;7.06;100.00;100434.06;5290408;28;20400;-67
2022/12/22 09:35:34;;;;;;;;;;;;;;;7.03;100.00;100436.06;5288799;28;19931;-67
2022/12/22 09:38:05;;;;;;;;;;;;;;;7.02;100.00;100434.38;5287323;28;19943;-67
2022/12/22 09:40:36;;;;;;;;;;;;;;;7.01;100.00;100445.94;5279148;28;19930;-67
2022/12/22 09:43:10;;;;;;;;;;;;;;;7.00;100.00;100444.22;5283285;28;20309;-67
2022/12/22 09:45:42;;;;;;;;;;;;;;;7.03;100.00;100449.31;5284814;28;20749;-67
2022/12/22 09:48:13;;;;;;;;;;;;;;;7.07;100.00;100456.13;5287644;28;19927;-67
2022/12/22 09:50:45;;;;;;;;;;;;;;;7.07;100.00;100450.81;5278303;28;19970;-67
2022/12/22 09:53:21;;;;;;;;;;;;;;;7.07;100.00;100454.31;5289058;28;19935;-67
2022/12/22 09:55:52;;;;;;;;;;;;;;;7.08;100.00;100455.19;5289044;28;19924;-66
2022/12/22 09:58:23;;;;;;;;;;;;;;;7.06;100.00;100459.75;5287630;28;19928;-67
2022/12/22 10:01:07;;;;;;;;;;;;;;;7.06;100.00;100462.38;5284256;28;19928;-67
2022/12/22 10:03:59;;;;;;;;;;;;;;;7.06;100.00;100467.69;5285664;28;20011;-67
2022/12/22 10:06:49;;;;;;;;;;;;;;;7.05;100.00;100473.94;5281300;28;20108;-67
2022/12/22 10:09:22;;;;;;;;;;;;;;;7.05;100.00;100472.13;5283789;28;19920;-67
2022/12/22 10:11:55;;;;;;;;;;;;;;;7.08;100.00;100479.06;5268054;28;21219;-67
2022/12/22 10:14:31;;;;;;;;;;;;;;;7.13;100.00;100492.00;5290906;28;19930;-67
2022/12/22 10:17:20;;;;;;;;;;;;;;;7.16;100.00;100489.97;5283243;28;20003;-67
2022/12/22 10:19:53;;;;;;;;;;;;;;;7.19;100.00;100492.44;5290757;28;19931;-67
2022/12/22 10:22:32;;;;;;;;;;;;;;;7.21;100.00;100489.66;5285686;28;19916;-68
2022/12/22 10:25:04;;;;;;;;;;;;;;;7.16;100.00;100484.69;5289733;28;20073;-68
2022/12/22 10:27:36;;;;;;;;;;;;;;;7.16;100.00;100487.31;5281368;28;19924;-67
2022/12/22 10:30:17;;;;;;;;;;;;;;;7.15;100.00;100488.31;5282984;28;20791;-67
2022/12/22 10:33:02;;;;;;;;;;;;;;;7.16;100.00;100482.03;5284772;28;19920;-68
2022/12/22 10:35:53;;;;;;;;;;;;;;;7.16;100.00;100489.13;5283463;28;20399;-67
2022/12/22 10:38:38;;;;;;;;;;;;;;;7.16;100.00;100491.78;5286425;28;19932;-67
2022/12/22 10:41:18;;;;;;;;;;;;;;;7.16;100.00;100500.59;5278077;28;20039;-66
2022/12/22 10:43:50;;;;;;;;;;;;;;;7.15;100.00;100496.25;5286823;28;19916;-66
2022/12/22 10:46:31;;;;;;;;;;;;;;;7.18;100.00;100493.38;5270352;28;20426;-66
2022/12/22 10:49:10;;;;;;;;;;;;;;;7.22;100.00;100496.69;5286306;28;20437;-66
2022/12/22 10:51:43;;;;;;;;;;;;;;;7.22;100.00;100500.16;5286975;28;19991;-66
2022/12/22 10:54:24;;;;;;;;;;;;;;;7.21;100.00;100505.56;5285757;28;19928;-66
2022/12/22 10:57:03;;;;;;;;;;;;;;;7.18;100.00;100506.66;5279042;28;19928;-66
2022/12/22 10:59:46;;;;;;;;;;;;;;;7.18;100.00;100508.47;5285230;28;19928;-66
2022/12/22 11:02:20;;;;;;;;;;;;;;;7.19;100.00;100503.06;5283590;28;20506;-66
2022/12/22 11:04:52;;;;;;;;;;;;;;;7.23;100.00;100512.50;5288103;28;19927;-66
2022/12/22 11:07:23;;;;;;;;;;;;;;;7.28;100.00;100511.34;5284901;28;20277;-66
2022/12/22 11:09:55;;;;;;;;;;;;;;;7.29;100.00;100518.31;5277645;28;21659;-66
2022/12/22 11:12:34;;;;;;;;;;;;;;;7.29;100.00;100510.34;5278660;28;19964;-66
2022/12/22 11:15:07;;;;;;;;;;;;;;;7.23;100.00;100520.47;5280373;28;19920;-66
2022/12/22 11:17:46;;;;;;;;;;;;;;;7.21;100.00;100516.19;5281295;28;19924;-66
2022/12/22 11:20:27;;;;;;;;;;;;;;;7.18;100.00;100514.59;5289332;28;20297;-66
2022/12/22 11:23:18;;;;;;;;;;;;;;;7.15;100.00;100513.97;5287295;28;19920;-66
2022/12/22 11:26:08;;;;;;;;;;;;;;;7.12;100.00;100515.03;5265145;28;19931;-66
2022/12/22 11:28:58;;;;;;;;;;;;;;;7.11;100.00;100526.56;5279673;28;20374;-67
2022/12/22 11:31:35;;;;;;;;;;;;;;;7.11;100.00;100521.28;5276501;28;20006;-66
2022/12/22 11:34:25;;;;;;;;;;;;;;;7.12;100.00;100524.78;5289496;28;20614;-66
2022/12/22 11:37:04;;;;;;;;;;;;;;;7.14;100.00;100528.19;5289910;28;19924;-67
2022/12/22 11:39:39;;;;;;;;;;;;;;;7.17;100.00;100538.59;5287970;28;19977;-66
2022/12/22 11:42:13;;;;;;;;;;;;;;;7.21;100.00;100534.75;5282711;28;19989;-66
2022/12/22 11:44:48;;;;;;;;;;;;;;;7.25;100.00;100528.31;5276545;28;20007;-66
2022/12/22 11:47:29;;;;;;;;;;;;;;;7.31;100.00;100524.41;5292925;28;19953;-66
2022/12/22 11:50:18;;;;;;;;;;;;;;;7.38;100.00;100538.94;5289095;28;19924;-66
2022/12/22 11:52:57;;;;;;;;;;;;;;;7.46;100.00;100534.81;5289038;28;19956;-66
2022/12/22 11:55:33;;;;;;;;;;;;;;;7.52;100.00;100546.81;5293798;28;19924;-66
2022/12/22 11:58:24;;;;;;;;;;;;;;;7.57;100.00;100534.06;5286764;28;21328;-66
2022/12/22 12:01:23;;;;;;;;;;;;;;;7.57;100.00;100525.25;5289103;28;19931;-66
2022/12/22 12:03:54;;;;;;;;;;;;;;;7.59;100.00;100537.47;5287590;28;20031;-66
2022/12/22 12:06:38;;;;;;;;;;;;;;;7.59;100.00;100531.31;5291581;28;20036;-66
2022/12/22 12:09:11;;;;;;;;;;;;;;;7.55;100.00;100530.66;5284642;28;20405;-68
2022/12/22 12:11:51;;;;;;;;;;;;;;;7.53;100.00;100521.97;5284090;28;19916;-67
2022/12/22 12:14:42;;;;;;;;;;;;;;;7.50;100.00;100514.22;5285492;28;20051;-67
2022/12/22 12:17:24;;;;;;;;;;;;;;;7.50;100.00;100508.91;5288187;28;20607;-67
2022/12/22 12:19:58;;;;;;;;;;;;;;;7.53;100.00;100503.38;5290801;28;19928;-66
2022/12/22 12:22:43;;;;;;;;;;;;;;;7.54;100.00;100490.97;5291389;28;19920;-66
2022/12/22 12:25:28;;;;;;;;;;;;;;;7.54;100.00;100490.97;5284623;28;19924;-68
2022/12/22 12:28:10;;;;;;;;;;;;;;;7.55;100.00;100488.19;5265775;28;19959;-65
2022/12/22 12:30:47;;;;;;;;;;;;;;;7.56;100.00;100484.59;5289093;28;19973;-65
2022/12/22 12:33:21;;;;;;;;;;;;;;;7.59;100.00;100481.72;5288695;28;19916;-65
2022/12/22 12:35:58;;;;;;;;;;;;;;;7.61;100.00;100484.25;5293596;28;20470;-65
2022/12/22 12:38:39;;;;;;;;;;;;;;;7.62;100.00;100478.84;5279577;28;19937;-65
2022/12/22 12:41:13;;;;;;;;;;;;;;;7.66;100.00;100484.78;5282674;28;19920;-66
2022/12/22 12:43:47;;;;;;;;;;;;;;;7.69;100.00;100486.38;5282470;28;19920;-66
2022/12/22 12:46:37;;;;;;;;;;;;;;;7.71;100.00;100487.09;5283536;28;20286;-66
2022/12/22 12:49:26;;;;;;;;;;;;;;;7.75;100.00;100478.00;5286723;28;20011;-66
2022/12/22 12:52:00;;;;;;;;;;;;;;;7.74;100.00;100490.41;5283271;28;19925;-66
2022/12/22 12:54:31;;;;;;;;;;;;;;;7.73;100.00;100478.09;5290671;28;20788;-66
2022/12/22 12:57:05;;;;;;;;;;;;;;;7.74;100.00;100482.44;5287760;28;19916;-66
2022/12/22 12:59:39;;;;;;;;;;;;;;;7.74;100.00;100474.47;5283329;28;19924;-66
2022/12/22 13:02:26;;;;;;;;;;;;;;;7.74;100.00;100469.16;5268208;28;19970;-66
2022/12/22 13:05:06;;;;;;;;;;;;;;;7.80;100.00;100475.84;5288703;28;20433;-65
2022/12/22 13:07:56;;;;;;;;;;;;;;;7.84;100.00;100472.00;5288414;28;20290;-65
2022/12/22 13:10:27;;;;;;;;;;;;;;;7.85;100.00;100474.56;5287587;28;20030;-65
2022/12/22 13:12:58;;;;;;;;;;;;;;;7.87;100.00;100478.94;5286215;28;19919;-65
2022/12/22 13:15:30;;;;;;;;;;;;;;;7.87;100.00;100478.94;5288797;28;20005;-65
2022/12/22 13:18:02;;;;;;;;;;;;;;;7.86;100.00;100480.72;5286794;28;19924;-65
2022/12/22 13:20:34;;;;;;;;;;;;;;;7.85;100.00;100473.72;5291966;28;19916;-65
2022/12/22 13:23:10;;;;;;;;;;;;;;;7.82;100.00;100479.25;5291693;28;19931;-65
2022/12/22 13:25:47;;;;;;;;;;;;;;;7.79;100.00;100472.34;5302564;28;19924;-65
2022/12/22 13:28:20;;;;;;;;;;;;;;;7.77;100.00;100479.56;5282196;28;19993;-65
2022/12/22 13:30:59;;;;;;;;;;;;;;;7.73;100.00;100475.44;5274735;28;19973;-65
2022/12/22 13:33:35;;;;;;;;;;;;;;;7.73;100.00;100479.88;5288516;28;19990;-65
2022/12/22 13:36:13;;;;;;;;;;;;;;;7.70;100.00;100469.50;5289439;28;19967;-65
2022/12/22 13:38:45;;;;;;;;;;;;;;;7.68;100.00;100472.25;5288474;28;19924;-65
2022/12/22 13:41:18;;;;;;;;;;;;;;;7.66;100.00;100461.72;5289274;28;19924;-65
2022/12/22 13:43:55;;;;;;;;;;;;;;;7.66;100.00;100444.97;5289959;28;19941;-67
2022/12/22 13:46:26;;;;;;;;;;;;;;;7.64;100.00;100445.06;5289379;28;19931;-66
2022/12/22 13:48:59;;;;;;;;;;;;;;;7.65;100.00;100440.59;5283764;28;20673;-66
2022/12/22 13:51:33;;;;;;;;;;;;;;;7.63;100.00;100440.72;5271744;28;20471;-66
2022/12/22 13:54:07;;;;;;;;;;;;;;;7.63;100.00;100447.81;5284712;28;20007;-67
2022/12/22 13:56:40;;;;;;;;;;;;;;;7.64;100.00;100439.75;5283635;28;19928;-66
2022/12/22 13:59:25;;;;;;;;;;;;;;;7.63;100.00;100443.38;5283690;28;19924;-66
2022/12/22 14:02:02;;;;;;;;;;;;;;;7.63;100.00;100438.06;5287402;28;20373;-66
2022/12/22 14:04:34;;;;;;;;;;;;;;;7.63;100.00;100430.09;5282552;28;19925;-66
2022/12/22 14:07:09;;;;;;;;;;;;;;;7.65;100.00;100430.84;5292614;28;19974;-66
2022/12/22 14:09:44;;;;;;;;;;;;;;;7.65;100.00;100422.88;5293269;28;19931;-66
2022/12/22 14:12:17;;;;;;;;;;;;;;;7.65;100.00;100424.66;5295193;28;19927;-66
2022/12/22 14:14:49;;;;;;;;;;;;;;;7.65;100.00;100425.53;5289306;28;19998;-66
2022/12/22 14:17:22;;;;;;;;;;;;;;;7.64;100.00;100429.13;5294547;28;20023;-66
2022/12/22 14:19:55;;;;;;;;;;;;;;;7.65;100.00;100424.66;5292126;28;19930;-66
2022/12/22 14:22:27;;;;;;;;;;;;;;;7.66;100.00;100415.75;5291727;28;19928;-66
2022/12/22 14:25:01;;;;;;;;;;;;;;;7.64;100.00;100410.53;5287715;28;20248;-67
2022/12/22 14:27:46;;;;;;;;;;;;;;;7.63;100.00;100408.00;5289948;28;20297;-66
2022/12/22 14:30:19;;;;;;;;;;;;;;;7.60;100.00;100403.75;5285365;28;20376;-66
2022/12/22 14:32:55;;;;;;;;;;;;;;;7.61;100.00;100401.94;5288294;28;19932;-66
2022/12/22 14:35:28;;;;;;;;;;;;;;;7.60;100.00;100398.44;5283920;28;20355;-65
2022/12/22 14:38:18;;;;;;;;;;;;;;;7.61;100.00;100402.81;5282953;28;19921;-66
2022/12/22 14:40:50;;;;;;;;;;;;;;;7.59;100.00;100390.59;5281563;28;20404;-65
2022/12/22 14:43:24;;;;;;;;;;;;;;;7.58;100.00;100380.94;5286676;28;20256;-65
2022/12/22 14:46:06;;;;;;;;;;;;;;;7.56;100.00;100380.22;5285059;28;19916;-65
2022/12/22 14:48:39;;;;;;;;;;;;;;;7.55;100.00;100378.50;5291620;28;19920;-65
2022/12/22 14:51:14;;;;;;;;;;;;;;;7.55;100.00;100379.34;5269728;28;19983;-66
2022/12/22 14:53:51;;;;;;;;;;;;;;;7.54;100.00;100375.00;5284143;28;19924;-67
2022/12/22 14:56:24;;;;;;;;;;;;;;;7.54;100.00;100375.00;5288720;28;19957;-67
2022/12/22 14:59:20;;;;;;;;;;;;;;;7.54;100.00;100375.00;5287355;28;19920;-66
2022/12/22 15:01:59;;;;;;;;;;;;;;;7.54;100.00;100368.84;5289957;28;19973;-65
2022/12/22 15:04:30;;;;;;;;;;;;;;;7.53;100.00;100372.44;5289911;28;20448;-66
2022/12/22 15:07:13;;;;;;;;;;;;;;;7.52;100.00;100365.47;5286761;28;20200;-66
2022/12/22 15:09:44;;;;;;;;;;;;;;;7.49;100.00;100366.50;5290208;28;19924;-66
2022/12/22 15:12:17;;;;;;;;;;;;;;;7.49;100.00;100365.66;5290077;28;19920;-65
2022/12/22 15:14:48;;;;;;;;;;;;;;;7.50;100.00;100359.38;5290102;28;20578;-66
2022/12/22 15:17:21;;;;;;;;;;;;;;;7.49;100.00;100357.72;5284261;28;21434;-65
2022/12/22 15:19:57;;;;;;;;;;;;;;;7.49;100.00;100352.41;5292798;28;21095;-65
2022/12/22 15:22:28;;;;;;;;;;;;;;;7.47;100.00;100355.16;5293468;28;19927;-65
2022/12/22 15:24:59;;;;;;;;;;;;;;;7.46;100.00;100350.81;5286208;28;20389;-65
2022/12/22 15:27:30;;;;;;;;;;;;;;;7.44;100.00;100347.41;5288348;28;19920;-65
2022/12/22 15:30:02;;;;;;;;;;;;;;;7.45;100.00;100338.50;5288827;28;20010;-65
2022/12/22 15:32:33;;;;;;;;;;;;;;;7.45;100.00;100346.44;5288026;28;19920;-65
2022/12/22 15:35:15;;;;;;;;;;;;;;;7.44;100.00;100342.09;5285774;28;19916;-65
2022/12/22 15:37:47;;;;;;;;;;;;;;;7.44;100.00;100328.81;5289280;28;19966;-65
2022/12/22 15:40:21;;;;;;;;;;;;;;;7.44;100.00;100327.03;5294020;28;21003;-65
2022/12/22 15:42:53;;;;;;;;;;;;;;;7.42;100.00;100326.31;5286406;28;19970;-66
2022/12/22 15:45:24;;;;;;;;;;;;;;;7.42;100.00;100317.47;5288904;28;19924;-65
2022/12/22 15:47:56;;;;;;;;;;;;;;;7.41;100.00;100321.94;5289933;28;20464;-65
2022/12/22 15:50:30;;;;;;;;;;;;;;;7.41;100.00;100318.44;5288060;28;19915;-65
2022/12/22 15:53:03;;;;;;;;;;;;;;;7.41;100.00;100311.31;5289085;28;19924;-66
2022/12/22 15:55:38;;;;;;;;;;;;;;;7.43;100.00;100316.53;5284294;28;20003;-65
2022/12/22 15:58:12;;;;;;;;;;;;;;;7.43;100.00;100313.88;5292110;28;20416;-65
2022/12/22 16:00:43;;;;;;;;;;;;;;;7.42;100.00;100304.19;5288416;28;20330;-66
2022/12/22 16:03:14;;;;;;;;;;;;;;;7.44;100.00;100297.84;5289239;28;19927;-65
2022/12/22 16:05:46;;;;;;;;;;;;;;;7.45;100.00;100301.34;5288182;28;19927;-66
2022/12/22 16:08:25;;;;;;;;;;;;;;;7.46;100.00;100287.13;5294300;28;19916;-65
2022/12/22 16:10:57;;;;;;;;;;;;;;;7.47;100.00;100294.09;5288463;28;20527;-66
2022/12/22 16:13:29;;;;;;;;;;;;;;;7.50;100.00;100282.41;5290421;28;20569;-65
2022/12/22 16:16:00;;;;;;;;;;;;;;;7.50;100.00;100279.75;5285030;28;20507;-65
2022/12/22 16:18:31;;;;;;;;;;;;;;;7.51;100.00;100278.81;5295368;28;19969;-65
2022/12/22 16:21:06;;;;;;;;;;;;;;;7.52;100.00;100275.22;5293604;28;19967;-65
2022/12/22 16:23:40;;;;;;;;;;;;;;;7.52;100.00;100265.44;5288140;28;19919;-66
2022/12/22 16:26:15;;;;;;;;;;;;;;;7.53;100.00;100264.44;5288989;28;19923;-66
2022/12/22 16:28:46;;;;;;;;;;;;;;;7.54;100.00;100258.19;5293947;28;20346;-65
2022/12/22 16:31:20;;;;;;;;;;;;;;;7.56;100.00;100255.44;5290563;28;19921;-65
2022/12/22 16:33:51;;;;;;;;;;;;;;;7.55;100.00;100243.94;5283870;28;19927;-65
2022/12/22 16:36:22;;;;;;;;;;;;;;;7.57;100.00;100235.88;5287418;28;19920;-65
2022/12/22 16:38:53;;;;;;;;;;;;;;;7.58;100.00;100240.25;5281732;28;19976;-65
2022/12/22 16:41:25;;;;;;;;;;;;;;;7.59;100.00;100234.81;5282341;28;20032;-65
2022/12/22 16:43:57;;;;;;;;;;;;;;;7.61;100.00;100238.22;5282610;28;20031;-65
2022/12/22 16:46:28;;;;;;;;;;;;;;;7.62;100.00;100236.41;5288641;28;20355;-66
2022/12/22 16:49:00;;;;;;;;;;;;;;;7.62;100.00;100226.63;5278939;28;19924;-65
2022/12/22 16:51:32;;;;;;;;;;;;;;;7.65;100.00;100222.88;5280336;28;20505;-66
2022/12/22 16:54:03;;;;;;;;;;;;;;;7.68;100.00;100227.13;5275177;28;20433;-65
2022/12/22 16:56:35;;;;;;;;;;;;;;;7.69;100.00;100223.50;5283151;28;19995;-65